Time;durP1;ratioP1;P1;durP2;ratioP2;P2;SDS_P1;SDS_P2;PMS_P1;PMS_P2;Temp;Humidity;BMP_temperature;BMP_pressure;BME280_temperature;BME280_humidity;BME280_pressure;Samples;Min_cycle;Max_cycle;Signal;HPM_P1;HPM_P2
2020/12/19 00:31:36;;;;;;;174.35;40.00;;;-0.10;99.90;;;;;;1039850;28;20371;-87
2020/12/19 00:52:08;;;;;;;162.35;37.28;;;0.10;99.90;;;;;;2181738;28;20393;-90
2020/12/19 01:22:50;;;;;;;228.27;41.27;;;0.20;99.90;;;;;;2003920;28;20198;-88
2020/12/19 01:40:15;;;;;;;201.50;37.95;;;0.30;99.90;;;;;;675946;28;21980;-86
2020/12/19 01:43:07;;;;;;;171.98;39.22;;;0.30;99.90;;;;;;674444;28;21823;-87
2020/12/19 02:20:01;;;;;;;230.85;36.28;;;0.30;99.90;;;;;;679252;28;21821;-87
2020/12/19 02:26:28;;;;;;;179.70;31.80;;;0.40;99.90;;;;;;679257;28;21978;-87
2020/12/19 02:49:54;;;;;;;152.30;32.72;;;0.40;99.90;;;;;;1866353;28;20511;-89
2020/12/19 03:10:39;;;;;;;105.05;28.87;;;0.50;99.90;;;;;;669906;28;21833;-86
2020/12/19 03:25:41;;;;;;;95.07;26.05;;;0.60;99.90;;;;;;1438632;28;21979;-88
2020/12/19 03:50:09;;;;;;;52.05;22.45;;;0.70;99.90;;;;;;1018798;28;21860;31
2020/12/19 03:53:06;;;;;;;66.87;23.52;;;0.60;99.90;;;;;;679718;28;21796;-89
2020/12/19 03:55:51;;;;;;;58.38;23.30;;;0.60;99.90;;;;;;1377505;28;20375;-88
2020/12/19 04:15:45;;;;;;;62.22;25.42;;;0.50;99.90;;;;;;2134167;28;20356;-88
2020/12/19 04:18:45;;;;;;;49.45;20.95;;;0.40;99.90;;;;;;2006804;28;20180;-89
2020/12/19 04:32:17;;;;;;;52.35;20.27;;;0.30;99.90;;;;;;614497;28;20459;-87
2020/12/19 04:38:45;;;;;;;60.97;24.37;;;0.30;99.90;;;;;;674827;28;21783;-87
2020/12/19 05:07:19;;;;;;;50.80;21.03;;;0.00;99.90;;;;;;1713990;28;20556;-86
2020/12/19 05:27:10;;;;;;;55.95;18.73;;;-0.10;99.90;;;;;;1949130;28;20622;-88
2020/12/19 05:44:26;;;;;;;35.00;15.73;;;-0.20;99.90;;;;;;2115162;28;20365;-89
2020/12/19 07:04:36;;;;;;;37.58;16.42;;;-0.50;99.90;;;;;;745397;28;21656;-89
2020/12/19 07:07:25;;;;;;;41.40;16.70;;;-0.50;99.90;;;;;;765958;28;21899;31
2020/12/19 07:10:38;;;;;;;34.85;15.73;;;-0.50;99.90;;;;;;737934;28;21851;-89
2020/12/19 07:27:50;;;;;;;32.58;15.68;;;-0.40;99.90;;;;;;1550628;28;21963;-88
2020/12/19 08:06:40;;;;;;;33.70;17.48;;;2.50;99.90;;;;;;1993000;28;21456;-88
2020/12/19 08:26:06;;;;;;;26.48;14.98;;;3.00;99.90;;;;;;700538;28;21940;-87
2020/12/19 08:50:40;;;;;;;24.55;13.35;;;5.30;99.90;;;;;;673236;28;21971;-86
2020/12/19 09:18:32;;;;;;;20.85;13.35;;;5.30;99.90;;;;;;2013987;28;20735;-87
2020/12/19 09:21:58;;;;;;;19.87;13.13;;;5.60;99.90;;;;;;1751028;28;20439;-87
2020/12/19 10:18:25;;;;;;;24.63;15.20;;;6.70;99.90;;;;;;672039;29;21876;-89
2020/12/19 10:34:50;;;;;;;21.98;14.35;;;6.40;99.90;;;;;;977138;28;20489;-90
2020/12/19 10:41:00;;;;;;;27.90;15.90;;;6.40;99.90;;;;;;2283912;29;20998;-91
2020/12/19 10:44:03;;;;;;;29.67;15.48;;;6.30;99.90;;;;;;946218;29;21920;-90
2020/12/19 10:47:17;;;;;;;34.55;17.70;;;6.20;99.90;;;;;;1080845;28;20422;-90
2020/12/19 10:53:59;;;;;;;27.15;17.23;;;6.20;99.90;;;;;;1588781;28;20370;-90
2020/12/19 11:00:51;;;;;;;27.35;14.82;;;6.10;99.90;;;;;;1643697;28;20235;-92
2020/12/19 11:03:49;;;;;;;21.40;12.20;;;5.90;99.90;;;;;;733768;28;21962;-91
2020/12/19 11:09:09;;;;;;;19.25;12.18;;;5.80;99.90;;;;;;741631;28;20514;-90
2020/12/19 11:15:47;;;;;;;24.75;14.13;;;5.80;99.90;;;;;;736592;28;21898;-91
2020/12/19 11:57:59;;;;;;;20.88;12.85;;;5.10;99.90;;;;;;2302878;27;20673;-90
2020/12/19 12:11:47;;;;;;;20.20;11.98;;;5.20;99.90;;;;;;2232870;27;20120;-91
2020/12/19 12:19:02;;;;;;;21.25;13.50;;;5.20;99.90;;;;;;1064059;28;20422;-88
2020/12/19 12:29:41;;;;;;;21.17;12.43;;;5.20;99.90;;;;;;1118326;28;20402;-90
2020/12/19 12:39:36;;;;;;;29.48;15.40;;;5.20;99.90;;;;;;2324574;28;20845;-91
2020/12/19 12:42:40;;;;;;;22.45;13.60;;;5.20;99.90;;;;;;2180350;28;20125;-89
2020/12/19 13:02:06;;;;;;;;;;;5.20;99.90;;;;;;4893247;27;9743137;-91
2020/12/19 13:05:04;;;;;;;22.60;13.35;;;5.60;99.90;;;;;;5150934;27;19965;-90
2020/12/19 13:07:45;;;;;;;19.83;12.48;;;5.60;99.90;;;;;;5166962;27;20184;-90
2020/12/19 13:10:42;;;;;;;23.30;13.70;;;5.50;99.90;;;;;;5182133;27;20095;-91
2020/12/19 13:13:42;;;;;;;29.27;14.57;;;5.50;99.90;;;;;;5194279;27;20091;-91
2020/12/19 13:16:36;;;;;;;22.80;13.85;;;5.50;99.90;;;;;;5184977;27;20153;-90
2020/12/19 13:19:19;;;;;;;34.55;19.40;;;5.50;99.90;;;;;;5199147;27;20101;-90
2020/12/19 13:22:19;;;;;;;28.48;20.70;;;5.50;99.90;;;;;;5188371;27;20101;-90
2020/12/19 13:25:04;;;;;;;41.20;29.90;;;5.30;99.90;;;;;;5153164;27;20174;-90
2020/12/19 13:28:05;;;;;;;51.30;36.63;;;5.30;99.90;;;;;;5189575;27;20379;-90
2020/12/19 13:30:57;;;;;;;65.78;43.42;;;5.20;99.90;;;;;;5133697;27;20110;-91
2020/12/19 13:34:03;;;;;;;35.08;22.23;;;5.10;99.90;;;;;;5154824;27;20090;-90
2020/12/19 13:36:48;;;;;;;28.00;15.35;;;5.10;99.90;;;;;;5202121;27;20129;-91
2020/12/19 13:39:45;;;;;;;26.20;14.75;;;5.10;99.90;;;;;;5241698;27;20086;-91
2020/12/19 13:42:34;;;;;;;38.92;19.20;;;5.10;99.90;;;;;;5228820;27;20101;-91
2020/12/19 13:45:22;;;;;;;48.00;22.83;;;5.10;99.90;;;;;;5204617;27;20091;-92
2020/12/19 13:48:19;;;;;;;40.58;20.83;;;5.10;99.90;;;;;;5167772;27;20494;-88
2020/12/19 13:51:05;;;;;;;53.60;25.47;;;5.10;99.90;;;;;;5224335;27;20087;-89
2020/12/19 13:53:59;;;;;;;40.60;19.05;;;5.00;99.90;;;;;;5145676;27;20232;-87
2020/12/19 13:56:41;;;;;;;39.95;20.02;;;5.00;99.90;;;;;;5227031;27;20173;-88
2020/12/19 13:59:37;;;;;;;74.40;28.33;;;5.00;99.90;;;;;;5161389;27;20105;-90
2020/12/19 14:02:16;;;;;;;33.95;16.48;;;5.00;99.90;;;;;;5189566;27;20086;-90
2020/12/19 14:05:14;;;;;;;35.65;16.90;;;5.10;99.90;;;;;;5215034;27;20098;-90
2020/12/19 14:08:05;;;;;;;37.13;17.42;;;5.20;99.90;;;;;;5169086;27;20167;-90
2020/12/19 14:11:05;;;;;;;48.15;22.48;;;5.20;99.90;;;;;;5231846;27;20102;-90
2020/12/19 14:13:44;;;;;;;64.35;28.08;;;5.20;99.90;;;;;;5137008;28;20092;-90
2020/12/19 14:16:41;;;;;;;47.30;22.98;;;5.20;99.90;;;;;;5170765;27;20110;-89
2020/12/19 14:19:28;;;;;;;38.95;19.77;;;5.10;99.90;;;;;;5199900;27;20094;-90
2020/12/19 14:22:28;;;;;;;32.30;17.25;;;5.10;99.90;;;;;;5157941;27;20094;-88
2020/12/19 14:25:08;;;;;;;42.33;21.83;;;5.00;99.90;;;;;;5197742;27;20435;-90
2020/12/19 14:27:52;;;;;;;43.58;21.45;;;5.00;99.90;;;;;;5199045;27;20139;-90
2020/12/19 14:30:35;;;;;;;45.35;23.48;;;4.90;99.90;;;;;;5176900;27;20106;-90
2020/12/19 14:33:42;;;;;;;48.87;25.83;;;4.90;99.90;;;;;;5168486;27;20154;-89
2020/12/19 14:36:26;;;;;;;80.85;30.30;;;4.70;99.90;;;;;;5224755;27;20087;-90
2020/12/19 14:39:21;;;;;;;64.97;23.67;;;4.70;99.90;;;;;;5202415;27;20102;-90
2020/12/19 14:42:00;;;;;;;37.35;20.58;;;4.70;99.90;;;;;;5221693;27;20104;-90
2020/12/19 14:44:55;;;;;;;49.25;23.20;;;4.60;99.90;;;;;;5148868;27;20102;-91
2020/12/19 14:47:38;;;;;;;56.15;25.15;;;4.50;99.90;;;;;;5169071;27;20110;-91
2020/12/19 14:50:30;;;;;;;53.80;25.70;;;4.50;99.90;;;;;;5144647;27;20122;-91
2020/12/19 14:53:09;;;;;;;32.80;20.08;;;4.40;99.90;;;;;;5175554;27;20171;-90
2020/12/19 14:56:09;;;;;;;30.85;18.45;;;4.40;99.90;;;;;;5164755;27;20113;-90
2020/12/19 14:58:48;;;;;;;33.00;19.98;;;4.30;99.90;;;;;;5205333;27;20143;-89
2020/12/19 15:01:54;;;;;;;44.60;23.87;;;4.20;99.90;;;;;;5206569;27;20207;-90
2020/12/19 15:04:33;;;;;;;39.05;23.20;;;4.20;99.90;;;;;;5200086;27;20482;-91
2020/12/19 15:07:27;;;;;;;34.83;22.55;;;4.10;99.90;;;;;;5196256;27;20474;-90
2020/12/19 15:10:09;;;;;;;35.05;21.83;;;4.10;99.90;;;;;;5218436;27;20114;-91
2020/12/19 15:13:00;;;;;;;41.42;23.38;;;4.00;99.90;;;;;;5179468;27;20102;-89
2020/12/19 15:15:39;;;;;;;32.88;22.30;;;4.00;99.90;;;;;;5178566;27;20094;-90
2020/12/19 15:18:36;;;;;;;35.25;20.75;;;4.00;99.90;;;;;;5202920;27;20094;-91
2020/12/19 15:21:22;;;;;;;40.00;21.45;;;4.00;99.90;;;;;;5190803;27;20138;-90
2020/12/19 15:24:20;;;;;;;36.25;21.30;;;3.90;99.90;;;;;;5179746;27;20091;-91
2020/12/19 15:30:43;;;;;;;37.38;22.00;;;3.80;99.90;;;;;;5174044;27;20150;-89
2020/12/19 15:33:40;;;;;;;40.78;23.10;;;3.70;99.90;;;;;;5223583;27;20079;-89
2020/12/19 15:36:28;;;;;;;40.22;23.70;;;3.70;99.90;;;;;;5197434;27;20094;-90
2020/12/19 15:39:28;;;;;;;43.05;23.87;;;3.60;99.90;;;;;;5197224;27;20084;-91
2020/12/19 15:42:47;;;;;;;39.83;23.58;;;3.60;99.90;;;;;;5161684;27;20146;-91
2020/12/19 15:45:32;;;;;;;42.00;23.58;;;3.60;99.90;;;;;;5190169;27;20113;-92
2020/12/19 15:48:16;;;;;;;38.65;22.02;;;3.40;99.90;;;;;;5134639;27;20106;-89
2020/12/19 15:50:57;;;;;;;56.17;27.98;;;3.40;99.90;;;;;;5127420;28;20109;-89
2020/12/19 15:53:53;;;;;;;64.18;34.83;;;3.30;99.90;;;;;;5138615;28;20118;-90
2020/12/19 15:56:41;;;;;;;47.13;27.13;;;3.30;99.90;;;;;;5189727;27;20146;-88
2020/12/19 15:59:36;;;;;;;40.47;20.35;;;3.20;99.90;;;;;;5168761;27;20110;-89
2020/12/19 16:02:15;;;;;;;116.70;52.47;;;3.20;99.90;;;;;;5149793;27;20099;-90
2020/12/19 16:05:13;;;;;;;256.75;111.25;;;3.20;99.90;;;;;;5129666;28;20156;-90
2020/12/19 16:08:24;;;;;;;186.85;85.28;;;3.10;99.90;;;;;;5156261;27;20083;-91
2020/12/19 16:11:10;;;;;;;154.93;76.70;;;3.10;99.90;;;;;;5104877;28;20164;-90
2020/12/19 16:13:56;;;;;;;73.82;36.08;;;3.10;99.90;;;;;;5103789;28;20100;-89
2020/12/19 16:16:55;;;;;;;37.58;20.17;;;3.10;99.90;;;;;;5137342;28;20103;-90
2020/12/19 16:19:39;;;;;;;31.85;19.00;;;3.00;99.90;;;;;;5120694;28;20127;-90
2020/12/19 16:22:37;;;;;;;31.40;17.92;;;3.00;99.90;;;;;;5111437;28;20562;-91
2020/12/19 16:25:19;;;;;;;35.72;18.15;;;3.00;99.90;;;;;;5135179;27;20106;-90
2020/12/19 16:28:13;;;;;;;28.80;18.37;;;3.00;99.90;;;;;;5158251;27;20170;-89
2020/12/19 16:30:52;;;;;;;41.63;24.98;;;3.00;99.90;;;;;;5199254;27;20098;-91
2020/12/19 16:33:49;;;;;;;44.08;27.50;;;2.90;99.90;;;;;;5197630;27;20384;-90
2020/12/19 16:36:29;;;;;;;54.88;30.55;;;2.90;99.90;;;;;;5164875;27;20086;-91
2020/12/19 16:39:26;;;;;;;33.22;20.40;;;2.80;99.90;;;;;;5152185;27;20095;-89
2020/12/19 16:42:08;;;;;;;38.28;20.88;;;2.70;99.90;;;;;;5183102;27;20086;-89
2020/12/19 16:45:05;;;;;;;38.80;21.42;;;2.70;99.90;;;;;;5167864;27;20146;-89
2020/12/19 16:47:44;;;;;;;38.00;21.12;;;2.70;99.90;;;;;;5141982;27;20109;-90
2020/12/19 16:50:38;;;;;;;42.85;22.85;;;2.60;99.90;;;;;;5172317;27;20099;-91
2020/12/19 16:53:20;;;;;;;40.70;23.73;;;2.60;99.90;;;;;;5162982;27;20563;-92
2020/12/19 16:56:15;;;;;;;44.75;22.50;;;2.50;99.90;;;;;;5155798;27;20102;-92
2020/12/19 16:58:57;;;;;;;45.90;26.40;;;2.60;99.90;;;;;;5154970;27;20106;-94
2020/12/19 17:01:52;;;;;;;52.67;28.45;;;2.50;99.90;;;;;;5184353;27;20090;-94
2020/12/19 17:04:43;;;;;;;45.10;26.15;;;2.60;99.90;;;;;;5199288;27;20087;-93
2020/12/19 17:07:37;;;;;;;52.70;31.40;;;2.50;99.90;;;;;;5205085;27;20094;-93
2020/12/19 17:10:16;;;;;;;48.63;27.75;;;2.50;99.90;;;;;;5185408;27;20101;-93
2020/12/19 17:13:07;;;;;;;52.03;31.77;;;2.40;99.90;;;;;;5210941;27;20098;-93
2020/12/19 17:15:59;;;;;;;47.10;27.30;;;2.30;99.90;;;;;;5189593;27;20110;-93
2020/12/19 17:18:52;;;;;;;59.83;28.95;;;2.40;99.90;;;;;;5176884;27;20103;-91
2020/12/19 17:21:37;;;;;;;71.43;39.38;;;2.20;99.90;;;;;;5153143;27;20122;-93
2020/12/19 17:24:29;;;;;;;78.53;39.60;;;2.10;99.90;;;;;;5181956;27;20091;-93
2020/12/19 17:27:08;;;;;;;63.65;32.13;;;2.10;99.90;;;;;;5192258;27;20096;-93
2020/12/19 17:30:05;;;;;;;79.95;34.50;;;2.10;99.90;;;;;;5183613;27;20114;-93
2020/12/19 17:32:44;;;;;;;85.55;45.90;;;2.10;99.90;;;;;;5143615;27;20090;-93
2020/12/19 17:35:38;;;;;;;74.62;40.97;;;2.00;99.90;;;;;;5193913;27;20503;-93
2020/12/19 17:38:18;;;;;;;62.22;33.88;;;2.00;99.90;;;;;;5164780;27;20207;-93
2020/12/19 17:41:32;;;;;;;51.30;32.10;;;2.00;99.90;;;;;;5184508;27;20559;-92
2020/12/19 17:44:11;;;;;;;55.88;34.25;;;1.90;99.90;;;;;;5186102;27;20097;-93
2020/12/19 17:47:05;;;;;;;56.85;33.70;;;1.90;99.90;;;;;;5216624;27;20082;-92
2020/12/19 17:49:44;;;;;;;48.80;27.45;;;1.80;99.90;;;;;;4758018;27;20099;-91
2020/12/19 17:52:38;;;;;;;44.22;23.87;;;1.80;99.90;;;;;;5170546;27;20105;-91
2020/12/19 17:55:17;;;;;;;47.40;26.50;;;1.90;99.90;;;;;;5159644;27;20097;-91
2020/12/19 17:58:16;;;;;;;41.47;23.30;;;1.70;99.90;;;;;;5190476;27;20089;-92
2020/12/19 18:00:55;;;;;;;46.47;26.87;;;1.70;99.90;;;;;;5159132;27;20504;-94
2020/12/19 18:03:55;;;;;;;44.85;24.87;;;1.70;99.90;;;;;;5184103;27;20117;-91
2020/12/19 18:06:44;;;;;;;44.97;26.58;;;1.70;99.90;;;;;;5122456;28;20111;-94
2020/12/19 18:09:48;;;;;;;44.25;25.30;;;1.60;99.90;;;;;;5157759;27;20119;-92
2020/12/19 18:12:54;;;;;;;50.95;27.58;;;1.60;99.90;;;;;;5141067;27;20396;-92
2020/12/19 18:15:53;;;;;;;64.15;32.28;;;1.60;99.90;;;;;;5153082;27;20091;-91
2020/12/19 18:18:47;;;;;;;49.95;29.08;;;1.50;99.90;;;;;;5207020;27;20202;-93
2020/12/19 18:21:57;;;;;;;61.30;34.75;;;1.50;99.90;;;;;;5187743;27;20102;-93
2020/12/19 18:25:02;;;;;;;59.47;32.22;;;1.50;99.90;;;;;;5168617;27;20095;-93
2020/12/19 18:27:54;;;;;;;59.88;34.13;;;1.40;99.90;;;;;;5192060;27;20546;-92
2020/12/19 18:30:43;;;;;;;54.88;32.13;;;1.40;99.90;;;;;;5252390;27;20494;-93
2020/12/19 18:33:43;;;;;;;65.10;33.28;;;1.30;99.90;;;;;;5177082;27;20151;-91
2020/12/19 18:36:44;;;;;;;68.50;34.00;;;1.30;99.90;;;;;;5147324;27;20091;-92
2020/12/19 18:40:08;;;;;;;54.42;31.08;;;1.20;99.90;;;;;;5175625;27;20091;-93
2020/12/19 18:44:05;;;;;;;67.18;34.05;;;1.30;99.90;;;;;;5163030;27;20180;-92
2020/12/19 18:47:59;;;;;;;75.07;42.30;;;1.20;99.90;;;;;;5134265;27;20471;-91
2020/12/19 18:51:11;;;;;;;71.95;39.42;;;1.10;99.90;;;;;;5232453;27;20456;-92
2020/12/19 18:54:15;;;;;;;64.32;36.00;;;1.10;99.90;;;;;;5203459;27;20142;-90
2020/12/19 18:56:57;;;;;;;73.53;39.88;;;1.00;99.90;;;;;;5137515;28;20087;-92
2020/12/19 19:00:02;;;;;;;74.18;41.40;;;1.00;99.90;;;;;;5163002;27;20199;-92
2020/12/19 19:02:45;;;;;;;84.90;47.50;;;1.00;99.90;;;;;;5167102;27;20087;-93
2020/12/19 19:05:46;;;;;;;78.12;41.92;;;1.00;99.90;;;;;;5170924;27;20095;-93
2020/12/19 19:08:29;;;;;;;83.55;43.63;;;0.90;99.90;;;;;;5189333;27;20087;-92
2020/12/19 19:11:28;;;;;;;79.28;39.13;;;0.90;99.90;;;;;;5123376;28;20171;-92
2020/12/19 19:14:14;;;;;;;79.07;45.15;;;0.90;99.90;;;;;;5219249;27;20105;-92
2020/12/19 19:17:33;;;;;;;72.40;39.75;;;0.90;99.90;;;;;;5177512;27;20106;-92
2020/12/19 19:20:17;;;;;;;82.07;41.70;;;0.90;99.90;;;;;;5122866;28;20251;-92
2020/12/19 19:23:15;;;;;;;68.45;36.75;;;0.90;99.90;;;;;;5199879;27;20126;-92
2020/12/19 19:25:57;;;;;;;65.10;35.58;;;0.90;99.90;;;;;;5168925;27;20091;-92
2020/12/19 19:28:56;;;;;;;69.37;35.13;;;0.90;99.90;;;;;;5188989;27;20501;-92
2020/12/19 19:31:42;;;;;;;47.08;26.37;;;0.80;99.90;;;;;;5139199;27;20117;-92
2020/12/19 19:34:46;;;;;;;58.97;34.60;;;0.90;99.90;;;;;;5158539;27;20380;-92
2020/12/19 19:37:31;;;;;;;60.92;35.78;;;0.80;99.90;;;;;;5178982;27;20555;-92
2020/12/19 19:40:29;;;;;;;66.20;34.15;;;0.80;99.90;;;;;;5177862;27;20560;-91
2020/12/19 19:43:11;;;;;;;60.28;34.35;;;0.80;99.90;;;;;;5208065;27;20091;-90
2020/12/19 19:46:09;;;;;;;59.55;33.15;;;0.80;99.90;;;;;;5199351;27;20101;-90
2020/12/19 19:48:51;;;;;;;59.30;33.67;;;0.80;99.90;;;;;;5130861;27;20174;-90
2020/12/19 19:51:49;;;;;;;56.28;31.12;;;0.80;99.90;;;;;;5144268;27;20112;-89
2020/12/19 19:54:31;;;;;;;64.25;33.75;;;0.80;99.90;;;;;;5206150;27;20121;-89
2020/12/19 19:57:29;;;;;;;47.97;26.15;;;0.70;99.90;;;;;;5230313;27;20472;-89
2020/12/19 20:00:11;;;;;;;66.25;35.22;;;0.80;99.90;;;;;;5186652;27;20156;-89
2020/12/19 20:03:10;;;;;;;60.72;34.83;;;0.80;99.90;;;;;;5212565;27;20091;-89
2020/12/19 20:05:54;;;;;;;50.67;27.45;;;0.70;99.90;;;;;;5213629;27;20139;-89
2020/12/19 20:08:52;;;;;;;55.78;30.15;;;0.70;99.90;;;;;;5206268;27;20384;-90
2020/12/19 20:11:34;;;;;;;51.15;26.55;;;0.70;99.90;;;;;;5159604;27;20101;-89
2020/12/19 20:14:31;;;;;;;57.15;30.20;;;0.70;99.90;;;;;;5246874;27;20109;-89
2020/12/19 20:17:16;;;;;;;64.43;35.67;;;0.60;99.90;;;;;;5172356;27;20168;-90
2020/12/19 20:20:14;;;;;;;56.47;29.37;;;0.70;99.90;;;;;;5165131;27;20095;-89
2020/12/19 20:22:56;;;;;;;61.37;34.33;;;0.60;99.90;;;;;;5177807;27;20146;-89
2020/12/19 20:25:54;;;;;;;57.67;31.83;;;0.60;99.90;;;;;;5168440;27;20090;-89
2020/12/19 20:28:37;;;;;;;61.33;33.42;;;0.60;99.90;;;;;;5231535;27;20160;-89
2020/12/19 20:31:31;;;;;;;51.03;28.02;;;0.60;99.90;;;;;;5194754;27;20091;-90
2020/12/19 20:34:11;;;;;;;60.17;32.95;;;0.50;99.90;;;;;;5195567;27;20106;-90
2020/12/19 20:37:05;;;;;;;60.55;32.47;;;0.50;99.90;;;;;;5208468;27;20109;-90
2020/12/19 20:39:44;;;;;;;62.78;34.25;;;0.50;99.90;;;;;;5161690;27;20107;-90
2020/12/19 20:42:38;;;;;;;65.05;37.42;;;0.40;99.90;;;;;;5188217;27;20105;-90
2020/12/19 20:45:17;;;;;;;72.43;38.42;;;0.50;99.90;;;;;;5194612;27;20130;-91
2020/12/19 20:48:11;;;;;;;84.00;47.03;;;0.30;99.90;;;;;;5139814;27;20095;-90
2020/12/19 20:50:53;;;;;;;78.43;43.83;;;0.40;99.90;;;;;;5142356;27;20094;-91
2020/12/19 20:53:47;;;;;;;60.40;33.13;;;0.30;99.90;;;;;;5192696;27;20109;-91
2020/12/19 20:56:27;;;;;;;83.68;45.03;;;0.20;99.90;;;;;;5152784;27;20171;-91
2020/12/19 20:59:21;;;;;;;105.47;52.42;;;0.20;99.90;;;;;;5186036;27;20117;-90
2020/12/19 21:02:07;;;;;;;107.72;54.35;;;0.10;99.90;;;;;;5163572;27;20107;-91
2020/12/19 21:05:02;;;;;;;107.15;53.10;;;0.10;99.90;;;;;;5147303;27;20118;-90
2020/12/19 21:07:41;;;;;;;84.45;42.95;;;0.00;99.90;;;;;;5166667;27;20182;-90
2020/12/19 21:10:37;;;;;;;104.20;56.92;;;0.00;99.90;;;;;;5135339;27;20095;-91
2020/12/19 21:13:16;;;;;;;87.53;47.83;;;0.00;99.90;;;;;;5141252;27;20096;-90
2020/12/19 21:16:27;;;;;;;98.53;51.37;;;-0.10;99.90;;;;;;5212612;27;20098;-91
2020/12/19 21:19:10;;;;;;;113.57;56.60;;;0.00;99.90;;;;;;5164221;27;20086;-90
2020/12/19 21:22:03;;;;;;;;;;;-0.10;99.90;;;;;;5191933;27;20101;-90
2020/12/19 21:24:57;;;;;;;92.75;47.80;;;0.00;99.90;;;;;;5175178;27;19962;-91
2020/12/19 21:28:01;;;;;;;96.32;46.63;;;0.00;99.90;;;;;;5165779;27;20090;-91
2020/12/19 21:30:58;;;;;;;88.82;45.38;;;0.00;99.90;;;;;;5187754;27;20103;-91
2020/12/19 21:33:38;;;;;;;85.60;43.00;;;-0.10;99.90;;;;;;5203602;27;20102;-90
2020/12/19 21:36:21;;;;;;;80.53;41.80;;;0.00;99.90;;;;;;5185689;27;20090;-90
2020/12/19 21:39:14;;;;;;;382.00;124.62;;;0.00;99.90;;;;;;5200848;27;20101;-91
2020/12/19 21:41:53;;;;;;;333.17;114.43;;;0.00;99.90;;;;;;5200545;27;20142;-91
2020/12/19 21:45:23;;;;;;;142.40;59.65;;;-0.10;99.90;;;;;;5178358;27;20106;-91
2020/12/19 21:48:15;;;;;;;131.52;54.88;;;-0.10;99.90;;;;;;5157785;27;20179;-91
2020/12/19 21:51:19;;;;;;;112.03;49.35;;;0.00;99.90;;;;;;5175298;27;20095;-91
2020/12/19 21:54:03;;;;;;;95.70;43.33;;;-0.10;99.90;;;;;;5158345;27;20103;-91
2020/12/19 21:56:55;;;;;;;75.80;38.53;;;-0.10;99.90;;;;;;5169374;27;20114;-91
2020/12/19 21:59:52;;;;;;;;;;;0.00;99.90;;;;;;5187669;27;20105;-91
2020/12/19 22:02:48;;;;;;;76.97;37.40;;;0.00;99.90;;;;;;5204174;27;19969;-91
2020/12/19 22:07:05;;;;;;;90.47;46.85;;;-0.10;99.90;;;;;;5055489;28;20208;-91
2020/12/19 22:09:47;;;;;;;83.97;43.75;;;0.00;99.90;;;;;;5068804;28;20124;-91
2020/12/19 22:12:39;;;;;;;82.07;44.00;;;-0.10;99.90;;;;;;5080480;28;20493;-91
2020/12/19 22:15:26;;;;;;;93.50;46.20;;;-0.10;99.90;;;;;;5098022;28;20095;-90
2020/12/19 22:18:36;;;;;;;95.35;48.38;;;-0.10;99.90;;;;;;5078597;28;20107;-91
2020/12/19 22:21:25;;;;;;;104.97;52.75;;;-0.10;99.90;;;;;;5079223;28;20080;-91
2020/12/19 22:24:21;;;;;;;101.68;52.35;;;-0.20;99.90;;;;;;5121658;27;20107;-91
2020/12/19 22:27:00;;;;;;;101.70;52.10;;;-0.20;99.90;;;;;;5179507;27;20091;-91
2020/12/19 22:29:55;;;;;;;88.57;46.22;;;-0.20;99.90;;;;;;5175334;27;20498;-89
2020/12/19 22:32:34;;;;;;;99.90;53.72;;;-0.30;99.90;;;;;;5218579;27;20129;-89
2020/12/19 22:35:35;;;;;;;97.43;48.08;;;-0.30;99.90;;;;;;5133256;27;20128;-89
2020/12/19 22:38:32;;;;;;;82.28;42.15;;;-0.30;99.90;;;;;;5183617;27;20094;-89
2020/12/19 22:41:26;;;;;;;105.97;52.75;;;-0.40;99.90;;;;;;5201035;27;20215;-89
2020/12/19 22:44:05;;;;;;;105.20;54.30;;;-0.40;99.90;;;;;;5178495;27;20162;-90
2020/12/19 22:47:01;;;;;;;113.18;57.13;;;-0.40;99.90;;;;;;4878505;27;20352;-89
2020/12/19 22:49:58;;;;;;;83.68;43.00;;;-0.40;99.90;;;;;;5167141;27;20083;-89
2020/12/19 22:52:50;;;;;;;100.95;48.40;;;-0.40;99.90;;;;;;5211973;27;20095;-89
2020/12/19 22:55:34;;;;;;;83.35;44.25;;;-0.40;99.90;;;;;;5202219;27;20153;-89
2020/12/19 22:58:28;;;;;;;107.85;56.10;;;-0.40;99.90;;;;;;5184332;27;20507;-89
2020/12/19 23:01:10;;;;;;;107.30;55.00;;;-0.30;99.90;;;;;;5167685;27;20174;-89
2020/12/19 23:04:02;;;;;;;97.85;50.60;;;-0.40;99.90;;;;;;5194961;27;20090;-89
2020/12/19 23:06:42;;;;;;;96.03;50.28;;;-0.40;99.90;;;;;;5207348;27;20097;-89
2020/12/19 23:09:34;;;;;;;95.30;50.40;;;-0.40;99.90;;;;;;5169379;27;20090;-88
2020/12/19 23:12:13;;;;;;;100.10;49.45;;;-0.50;99.90;;;;;;5186399;27;20503;-88
2020/12/19 23:15:05;;;;;;;93.53;47.70;;;-0.50;99.90;;;;;;5144699;27;20174;-88
2020/12/19 23:17:44;;;;;;;116.22;57.20;;;-0.50;99.90;;;;;;5180599;27;20091;-88
2020/12/19 23:20:35;;;;;;;107.95;52.15;;;-0.50;99.90;;;;;;5172525;27;20086;-88
2020/12/19 23:23:14;;;;;;;120.10;61.92;;;-0.50;99.90;;;;;;5256286;27;20091;-90
2020/12/19 23:26:06;;;;;;;133.20;63.50;;;-0.40;99.90;;;;;;5165817;27;20130;-90
2020/12/19 23:28:45;;;;;;;102.53;50.75;;;-0.50;99.90;;;;;;5184946;27;20404;-88
2020/12/19 23:31:39;;;;;;;123.25;62.67;;;-0.50;99.90;;;;;;5181068;27;20167;-90
2020/12/19 23:34:18;;;;;;;118.30;61.35;;;-0.60;99.90;;;;;;5179654;27;20136;-91
2020/12/19 23:37:10;;;;;;;125.60;61.90;;;-0.70;99.90;;;;;;5180818;27;20388;-91
2020/12/19 23:40:03;;;;;;;131.23;60.83;;;-0.70;99.90;;;;;;5092339;28;20088;-89
2020/12/19 23:42:59;;;;;;;130.95;58.65;;;-0.70;99.90;;;;;;5158883;27;20488;-90
2020/12/19 23:45:38;;;;;;;111.97;53.35;;;-0.70;99.90;;;;;;5190138;27;20090;-89
2020/12/19 23:48:35;;;;;;;102.60;49.30;;;-0.80;99.90;;;;;;5202158;27;20110;-89
2020/12/19 23:51:14;;;;;;;99.53;48.45;;;-0.80;99.90;;;;;;5199932;27;20106;-90
2020/12/19 23:54:08;;;;;;;103.93;49.60;;;-0.80;99.90;;;;;;5165932;27;20154;-89
2020/12/19 23:56:47;;;;;;;90.45;47.35;;;-0.80;99.90;;;;;;5208162;27;20159;-89
2020/12/19 23:59:41;;;;;;;90.28;42.22;;;-0.80;99.90;;;;;;5193991;27;20094;-90
